Time;durP1;ratioP1;P1;durP2;ratioP2;P2;SDS_P1;SDS_P2;PMS_P1;PMS_P2;Temp;Humidity;BMP_temperature;BMP_pressure;BME280_temperature;BME280_humidity;BME280_pressure;Samples;Min_cycle;Max_cycle;Signal;HPM_P1;HPM_P2
2022/08/28 00:01:00;;;;;;;14.70;13.30;;;17.40;99.90;;;;;;4970094;28;20524;-87
2022/08/28 00:03:26;;;;;;;15.87;14.30;;;17.40;99.90;;;;;;4973181;28;20940;-87
2022/08/28 00:05:52;;;;;;;14.73;13.23;;;17.50;99.90;;;;;;4964130;28;20221;-88
2022/08/28 00:08:18;;;;;;;14.27;12.97;;;17.50;99.90;;;;;;4968663;28;20591;-87
2022/08/28 00:10:44;;;;;;;14.30;12.90;;;17.60;99.90;;;;;;4968108;28;20214;-87
2022/08/28 00:13:17;;;;;;;15.23;13.83;;;17.70;99.90;;;;;;4970809;28;20244;-87
2022/08/28 00:15:44;;;;;;;13.67;12.57;;;17.70;99.90;;;;;;4967877;28;20504;-87
2022/08/28 00:18:09;;;;;;;14.90;13.20;;;17.70;99.90;;;;;;4970199;28;20436;-87
2022/08/28 00:20:37;;;;;;;14.53;13.23;;;17.70;99.90;;;;;;4973089;28;20448;-87
2022/08/28 00:23:04;;;;;;;14.73;13.43;;;17.60;99.90;;;;;;4986750;28;20356;-87
2022/08/28 00:25:31;;;;;;;16.40;14.90;;;17.50;99.90;;;;;;4972662;28;20453;-86
2022/08/28 00:28:01;;;;;;;14.20;12.70;;;17.50;99.90;;;;;;4989545;28;20756;-86
2022/08/28 00:30:36;;;;;;;15.23;13.80;;;17.60;99.90;;;;;;4989447;28;20535;-86
2022/08/28 00:33:06;;;;;;;18.67;15.50;;;17.70;99.90;;;;;;4973817;28;20782;-87
2022/08/28 00:35:32;;;;;;;16.60;15.07;;;17.70;99.90;;;;;;4971021;28;20472;-87
2022/08/28 00:37:58;;;;;;;19.60;16.57;;;17.60;99.90;;;;;;4966592;28;20600;-86
2022/08/28 00:40:27;;;;;;;21.33;15.70;;;17.60;99.90;;;;;;4964454;28;20840;-86
2022/08/28 00:42:53;;;;;;;16.87;15.07;;;17.60;99.90;;;;;;4969244;28;20193;-86
2022/08/28 00:45:20;;;;;;;16.00;14.47;;;17.60;99.90;;;;;;4967108;28;20444;-86
2022/08/28 00:47:45;;;;;;;16.67;15.07;;;17.60;99.90;;;;;;4966757;28;21885;-86
2022/08/28 00:50:18;;;;;;;17.13;15.43;;;17.70;99.90;;;;;;4959546;28;20688;-87
2022/08/28 00:52:46;;;;;;;17.57;14.83;;;17.60;99.90;;;;;;4956361;28;20505;-87
2022/08/28 00:55:16;;;;;;;17.47;15.67;;;17.60;99.90;;;;;;4964070;28;20455;-87
2022/08/28 00:57:48;;;;;;;17.80;14.20;;;17.60;99.90;;;;;;4965587;28;20442;-86
2022/08/28 01:00:24;;;;;;;18.87;15.20;;;17.60;99.90;;;;;;4970361;28;20437;-88
2022/08/28 01:02:51;;;;;;;21.93;16.43;;;17.60;99.90;;;;;;4969395;28;20466;-87
2022/08/28 01:05:18;;;;;;;29.87;18.40;;;17.70;99.90;;;;;;4970227;28;20550;-87
2022/08/28 01:07:45;;;;;;;24.70;19.67;;;17.70;99.90;;;;;;4970689;28;20449;-86
2022/08/28 01:10:20;;;;;;;26.67;19.70;;;17.80;99.90;;;;;;4967342;28;20527;-86
2022/08/28 01:12:48;;;;;;;28.03;19.80;;;17.80;99.90;;;;;;4972271;28;20444;-86
2022/08/28 01:15:17;;;;;;;29.30;22.10;;;17.80;99.90;;;;;;4975510;28;20449;-86
2022/08/28 01:17:50;;;;;;;31.73;22.87;;;17.90;99.90;;;;;;4984330;28;20447;-87
2022/08/28 01:20:20;;;;;;;33.70;24.50;;;17.80;99.90;;;;;;4967045;28;22205;-87
2022/08/28 01:22:58;;;;;;;35.30;26.13;;;17.90;99.90;;;;;;4964262;28;20436;-87
2022/08/28 01:25:28;;;;;;;33.53;26.93;;;17.90;99.90;;;;;;4973804;28;20448;-88
2022/08/28 01:27:55;;;;;;;31.93;27.20;;;17.80;99.90;;;;;;4970213;28;20527;-87
2022/08/28 01:30:23;;;;;;;33.10;26.13;;;17.90;99.90;;;;;;4973292;28;20654;-87
2022/08/28 01:32:52;;;;;;;33.37;27.37;;;17.90;99.90;;;;;;4967018;28;20440;-87
2022/08/28 01:35:24;;;;;;;32.63;28.23;;;17.90;99.90;;;;;;4982058;28;21070;-87
2022/08/28 01:37:51;;;;;;;40.57;30.90;;;18.00;99.90;;;;;;4960111;28;20982;-87
2022/08/28 01:40:25;;;;;;;34.23;28.70;;;18.00;99.90;;;;;;4965806;28;20453;-87
2022/08/28 01:42:50;;;;;;;29.87;26.50;;;18.00;99.90;;;;;;4965402;28;20949;-87
2022/08/28 01:45:19;;;;;;;32.87;27.07;;;18.00;99.90;;;;;;4965432;28;21076;-87
2022/08/28 01:47:46;;;;;;;29.77;26.03;;;18.10;99.90;;;;;;4966126;28;20218;-88
2022/08/28 01:50:16;;;;;;;31.90;26.00;;;18.10;99.90;;;;;;4964811;28;20465;-87
2022/08/28 01:52:42;;;;;;;32.43;23.60;;;18.10;99.90;;;;;;4963708;28;20539;-87
2022/08/28 01:55:09;;;;;;;27.30;23.13;;;18.20;99.90;;;;;;4965134;28;20433;-87
2022/08/28 01:57:40;;;;;;;28.23;23.00;;;18.10;99.90;;;;;;4975896;28;20979;-88
2022/08/28 02:00:08;;;;;;;24.60;21.20;;;18.10;99.90;;;;;;4966348;28;20700;-88
2022/08/28 02:02:34;;;;;;;23.20;20.80;;;18.40;99.90;;;;;;4963107;28;20460;-87
2022/08/28 02:05:00;;;;;;;22.53;20.13;;;18.40;99.90;;;;;;4975032;28;20445;-88
2022/08/28 02:07:25;;;;;;;24.90;21.03;;;18.30;99.90;;;;;;4967120;28;20194;-87
2022/08/28 02:09:51;;;;;;;24.47;22.00;;;18.20;99.90;;;;;;4973462;28;20181;-88
2022/08/28 02:12:17;;;;;;;23.17;20.87;;;18.10;99.90;;;;;;4971078;28;20208;-88
2022/08/28 02:14:42;;;;;;;26.13;23.33;;;18.10;99.90;;;;;;4969711;28;20944;-88
2022/08/28 02:17:08;;;;;;;26.13;21.70;;;17.90;99.90;;;;;;4971517;28;20204;-88
2022/08/28 02:19:33;;;;;;;24.90;22.37;;;17.90;99.90;;;;;;4969711;28;21623;-88
2022/08/28 02:21:59;;;;;;;25.10;22.40;;;17.90;99.90;;;;;;4967390;28;20669;-87
2022/08/28 02:24:24;;;;;;;30.03;24.60;;;17.90;99.90;;;;;;4971398;28;20186;-88
2022/08/28 02:26:50;;;;;;;29.43;26.10;;;17.80;99.90;;;;;;4969845;28;20655;-89
2022/08/28 02:29:17;;;;;;;27.50;24.00;;;17.90;99.90;;;;;;4968645;28;20825;-88
2022/08/28 02:31:42;;;;;;;35.33;26.63;;;18.00;99.90;;;;;;4983178;28;20224;-87
2022/08/28 02:34:09;;;;;;;29.20;25.87;;;18.00;99.90;;;;;;4970879;28;20514;-87
2022/08/28 02:36:40;;;;;;;34.47;24.87;;;18.00;99.90;;;;;;4962337;28;20691;-88
2022/08/28 02:39:06;;;;;;;30.40;24.30;;;18.10;99.90;;;;;;4991363;28;20788;-88
2022/08/28 02:41:31;;;;;;;32.40;26.80;;;18.10;99.90;;;;;;4972708;28;20478;-88
2022/08/28 02:43:57;;;;;;;38.80;29.80;;;18.00;99.90;;;;;;4971053;28;20607;-87
2022/08/28 02:46:23;;;;;;;35.60;30.40;;;18.00;99.90;;;;;;4970901;28;20393;-88
2022/08/28 02:48:49;;;;;;;37.60;30.03;;;18.00;99.90;;;;;;4965871;28;21020;-87
2022/08/28 02:51:15;;;;;;;50.27;33.50;;;17.90;99.90;;;;;;4971709;28;20486;-86
2022/08/28 02:53:41;;;;;;;38.03;32.43;;;17.80;99.90;;;;;;4976912;28;20186;-86
2022/08/28 02:56:08;;;;;;;36.83;30.07;;;17.80;99.90;;;;;;4971466;28;20200;-87
2022/08/28 02:58:35;;;;;;;43.43;34.27;;;17.80;99.90;;;;;;4976411;28;20825;-86
2022/08/28 03:01:02;;;;;;;45.13;33.50;;;17.90;99.90;;;;;;4969007;28;21030;-86
2022/08/28 03:03:30;;;;;;;38.70;33.33;;;17.80;99.90;;;;;;4969727;28;20469;-87
2022/08/28 03:05:59;;;;;;;45.30;32.47;;;17.90;99.90;;;;;;4972048;28;20961;-87
2022/08/28 03:08:25;;;;;;;41.50;33.80;;;18.10;99.90;;;;;;4970566;28;21724;-87
2022/08/28 03:10:50;;;;;;;48.30;35.07;;;18.10;99.90;;;;;;4973033;28;20559;-87
2022/08/28 03:13:17;;;;;;;46.47;34.67;;;18.10;99.90;;;;;;4973337;28;20186;-86
2022/08/28 03:15:43;;;;;;;49.07;36.60;;;18.10;99.90;;;;;;4964279;28;20177;-87
2022/08/28 03:18:09;;;;;;;51.80;36.10;;;18.10;99.90;;;;;;4968538;28;20777;-87
2022/08/28 03:20:35;;;;;;;41.07;32.37;;;18.10;99.90;;;;;;4971641;28;20433;-86
2022/08/28 03:26:00;;;;;;;40.43;33.00;;;18.20;99.90;;;;;;4974110;28;20212;-87
2022/08/28 03:28:28;;;;;;;42.47;33.03;;;18.30;99.90;;;;;;4972868;28;20444;-87
2022/08/28 03:30:54;;;;;;;40.20;33.30;;;18.20;99.90;;;;;;4972524;28;20468;-89
2022/08/28 03:33:20;;;;;;;41.57;32.40;;;18.20;99.90;;;;;;4961354;28;20449;-87
2022/08/28 03:35:46;;;;;;;36.43;30.97;;;18.30;99.90;;;;;;4974156;28;20193;-88
2022/08/28 03:38:11;;;;;;;39.87;32.77;;;18.30;99.90;;;;;;4968337;28;20441;-87
2022/08/28 03:40:42;;;;;;;40.00;32.60;;;18.20;99.90;;;;;;4965239;28;20205;-88
2022/08/28 03:43:13;;;;;;;40.10;31.50;;;18.10;99.90;;;;;;4971364;28;20277;-87
2022/08/28 03:45:39;;;;;;;35.90;30.30;;;18.10;99.90;;;;;;4972970;28;20957;-87
2022/08/28 03:48:04;;;;;;;40.00;30.50;;;18.20;99.90;;;;;;4974447;28;20462;-88
2022/08/28 03:50:30;;;;;;;42.13;31.50;;;18.20;99.90;;;;;;4977437;28;20480;-88
2022/08/28 03:53:14;;;;;;;40.90;31.70;;;18.10;99.90;;;;;;4973665;28;20212;-87
2022/08/28 03:55:40;;;;;;;38.33;30.80;;;18.10;99.90;;;;;;4971353;28;20507;-87
2022/08/28 03:58:07;;;;;;;37.13;29.87;;;18.20;99.90;;;;;;4987802;28;20311;-87
2022/08/28 04:00:33;;;;;;;35.10;28.93;;;18.20;99.90;;;;;;4989578;28;20998;-87
2022/08/28 04:02:59;;;;;;;38.80;31.73;;;18.30;99.90;;;;;;4969064;28;20477;-86
2022/08/28 04:05:25;;;;;;;34.77;29.80;;;18.30;99.90;;;;;;4975446;28;20519;-87
2022/08/28 04:07:51;;;;;;;37.03;29.60;;;18.20;99.90;;;;;;4974701;28;20182;-87
2022/08/28 04:10:16;;;;;;;34.80;29.57;;;18.20;99.90;;;;;;4976696;28;20598;-87
2022/08/28 04:12:43;;;;;;;32.33;26.83;;;18.30;99.90;;;;;;4972964;28;20490;-87
2022/08/28 04:15:09;;;;;;;31.93;28.00;;;18.40;99.90;;;;;;4992279;28;20177;-87
2022/08/28 04:17:37;;;;;;;35.70;30.63;;;18.30;99.90;;;;;;4967999;28;20441;-88
2022/08/28 04:20:04;;;;;;;36.70;30.80;;;18.30;99.90;;;;;;4968747;28;23939;-87
2022/08/28 04:22:30;;;;;;;36.07;29.80;;;18.30;99.90;;;;;;4973317;28;20448;-87
2022/08/28 04:24:56;;;;;;;39.20;29.70;;;18.30;99.90;;;;;;4972224;28;21651;-87
2022/08/28 04:27:21;;;;;;;40.77;30.77;;;18.30;99.90;;;;;;4971106;28;20182;-87
2022/08/28 04:29:48;;;;;;;38.20;29.60;;;18.30;99.90;;;;;;4963626;28;20194;-87
2022/08/28 04:32:13;;;;;;;35.30;29.23;;;18.30;99.90;;;;;;4966530;28;20205;-87
2022/08/28 04:34:39;;;;;;;38.57;30.10;;;18.30;99.90;;;;;;4973694;28;20436;-87
2022/08/28 04:37:05;;;;;;;35.83;30.83;;;18.40;99.90;;;;;;4976288;28;20190;-87
2022/08/28 04:39:31;;;;;;;33.20;27.50;;;18.40;99.90;;;;;;4974645;28;20536;-87
2022/08/28 04:41:57;;;;;;;34.50;30.20;;;18.40;99.90;;;;;;4973251;28;20808;-87
2022/08/28 04:44:22;;;;;;;38.17;32.17;;;18.40;99.90;;;;;;4970463;28;20623;-88
2022/08/28 04:46:48;;;;;;;36.83;29.33;;;18.40;99.90;;;;;;4974946;28;20189;-87
2022/08/28 04:49:14;;;;;;;32.97;26.90;;;18.40;99.90;;;;;;4973955;28;20186;-87
2022/08/28 04:51:40;;;;;;;35.20;27.00;;;18.40;99.90;;;;;;4972156;28;20312;-87
2022/08/28 04:54:06;;;;;;;34.63;27.77;;;18.40;99.90;;;;;;4974548;28;20529;-88
2022/08/28 04:56:33;;;;;;;34.43;27.93;;;18.40;99.90;;;;;;4977517;28;20448;-87
2022/08/28 04:59:00;;;;;;;33.97;26.83;;;18.40;99.90;;;;;;4973320;28;20946;-88
2022/08/28 05:01:25;;;;;;;32.50;27.53;;;18.50;99.90;;;;;;4969283;28;20460;-87
2022/08/28 05:03:58;;;;;;;32.07;26.80;;;18.50;99.90;;;;;;4998370;28;20441;-88
2022/08/28 05:06:27;;;;;;;37.13;30.20;;;18.50;99.90;;;;;;4987266;28;20213;-88
2022/08/28 05:08:54;;;;;;;33.07;28.20;;;18.40;99.90;;;;;;4970009;28;20476;-88
2022/08/28 05:11:22;;;;;;;34.90;29.73;;;18.30;99.90;;;;;;4989838;28;20483;-88
2022/08/28 05:13:48;;;;;;;34.03;28.20;;;18.40;99.90;;;;;;4980222;28;20792;-88
2022/08/28 05:16:15;;;;;;;33.07;28.07;;;18.40;99.90;;;;;;4979659;28;20460;-88
2022/08/28 05:18:41;;;;;;;33.10;28.20;;;18.50;99.90;;;;;;4977250;28;20425;-88
2022/08/28 05:21:19;;;;;;;33.93;26.67;;;18.50;99.90;;;;;;4976940;28;20433;-88
2022/08/28 05:23:46;;;;;;;33.73;27.40;;;18.50;99.90;;;;;;4995517;28;20461;-88
2022/08/28 05:26:12;;;;;;;34.00;26.63;;;18.60;99.90;;;;;;4981749;28;20585;-88
2022/08/28 05:28:39;;;;;;;32.17;27.07;;;18.60;99.90;;;;;;4977386;28;20429;-87
2022/08/28 05:31:17;;;;;;;33.10;27.50;;;18.70;99.90;;;;;;4980413;28;20480;-88
2022/08/28 05:33:47;;;;;;;30.00;25.60;;;18.70;99.90;;;;;;4969083;28;20452;-88
2022/08/28 05:36:14;;;;;;;27.27;24.37;;;18.70;99.90;;;;;;4970855;28;21209;-88
2022/08/28 05:38:41;;;;;;;29.97;24.83;;;18.90;99.90;;;;;;4995511;28;20443;-87
2022/08/28 05:41:07;;;;;;;29.17;25.70;;;19.00;99.90;;;;;;4976400;28;20457;-87
2022/08/28 05:43:33;;;;;;;30.57;27.33;;;19.10;99.90;;;;;;4972887;28;20448;-87
2022/08/28 05:46:01;;;;;;;29.70;25.40;;;19.00;99.90;;;;;;4966519;28;20452;-86
2022/08/28 05:48:31;;;;;;;29.93;26.37;;;19.10;99.90;;;;;;4973927;28;20443;-88
2022/08/28 05:51:04;;;;;;;30.33;25.43;;;19.10;99.90;;;;;;4965823;28;20959;-88
2022/08/28 05:53:30;;;;;;;28.40;24.03;;;19.10;99.90;;;;;;4977123;28;20436;-88
2022/08/28 05:55:56;;;;;;;26.97;23.90;;;19.10;99.90;;;;;;4961025;28;20468;-89
2022/08/28 05:58:27;;;;;;;27.53;24.50;;;19.10;99.90;;;;;;4966434;28;20543;-88
2022/08/28 06:00:54;;;;;;;28.00;24.97;;;19.10;99.90;;;;;;4965065;28;20189;-90
2022/08/28 06:03:21;;;;;;;27.77;24.80;;;19.10;99.90;;;;;;4968878;28;20455;-89
2022/08/28 06:05:54;;;;;;;26.30;23.60;;;19.10;99.90;;;;;;4966313;28;20444;-90
2022/08/28 06:08:21;;;;;;;22.73;20.43;;;19.00;99.90;;;;;;4964570;28;20448;-87
2022/08/28 06:10:51;;;;;;;25.37;22.77;;;19.20;99.90;;;;;;4966936;28;20689;-89
2022/08/28 06:13:47;;;;;;;23.50;20.73;;;19.30;99.90;;;;;;4981228;28;20449;-89
2022/08/28 06:16:13;;;;;;;27.10;23.73;;;19.40;99.90;;;;;;4983687;28;20437;-87
2022/08/28 06:18:40;;;;;;;28.10;24.60;;;19.60;99.90;;;;;;4972311;28;20448;-88
2022/08/28 06:21:06;;;;;;;29.47;24.40;;;19.50;99.90;;;;;;4968054;28;20521;-90
2022/08/28 06:23:32;;;;;;;27.10;23.10;;;19.40;99.90;;;;;;4967400;28;20543;-92
2022/08/28 06:25:57;;;;;;;29.00;24.63;;;19.50;99.90;;;;;;4963864;28;20221;-89
2022/08/28 06:28:29;;;;;;;31.10;25.20;;;19.50;99.90;;;;;;4970488;28;20252;-90
2022/08/28 06:31:15;;;;;;;27.47;23.17;;;19.60;99.90;;;;;;4963910;28;20213;-93
2022/08/28 06:33:41;;;;;;;25.63;23.00;;;19.60;99.90;;;;;;4984612;28;20459;-90
2022/08/28 06:36:07;;;;;;;28.07;24.93;;;19.70;99.90;;;;;;4967245;28;20826;-88
2022/08/28 06:38:33;;;;;;;24.73;21.97;;;19.70;99.90;;;;;;4971251;28;20994;-87
2022/08/28 06:40:58;;;;;;;25.93;22.50;;;19.80;99.90;;;;;;4967971;28;21373;-88
2022/08/28 06:43:26;;;;;;;25.00;22.50;;;19.80;99.90;;;;;;4973259;28;20186;-88
2022/08/28 06:45:55;;;;;;;25.67;22.77;;;19.90;99.90;;;;;;4968272;28;20185;-88
2022/08/28 06:48:23;;;;;;;26.20;22.27;;;19.90;99.90;;;;;;4972024;28;20453;-87
2022/08/28 06:51:55;;;;;;;;;;;;;;;;;;;;;
2022/08/28 06:54:21;;;;;;;23.33;20.97;;;20.00;99.90;;;;;;4988048;28;20979;-89
2022/08/28 06:56:47;;;;;;;23.73;21.33;;;20.00;99.90;;;;;;4968419;28;20522;-88
2022/08/28 06:59:13;;;;;;;25.97;23.37;;;20.10;99.90;;;;;;4968531;28;20190;-86
2022/08/28 07:01:38;;;;;;;22.53;20.20;;;20.10;99.90;;;;;;4965696;28;20192;-88
2022/08/28 07:04:09;;;;;;;23.53;21.07;;;20.20;99.90;;;;;;4973727;28;20209;-88
2022/08/28 07:06:41;;;;;;;23.90;20.57;;;20.20;99.90;;;;;;4971325;28;20182;-89
2022/08/28 07:09:10;;;;;;;22.33;20.00;;;20.20;99.90;;;;;;4974215;28;20981;-89
2022/08/28 07:11:39;;;;;;;24.83;21.07;;;20.20;99.90;;;;;;4980323;28;21455;-93
2022/08/28 07:14:05;;;;;;;21.10;18.67;;;20.10;99.90;;;;;;4961018;28;20536;-88
2022/08/28 07:16:36;;;;;;;23.57;21.13;;;20.10;99.90;;;;;;4992449;28;20444;-88
2022/08/28 07:19:04;;;;;;;22.60;20.20;;;20.10;99.90;;;;;;4974114;28;20515;-86
2022/08/28 07:21:31;;;;;;;22.73;20.43;;;20.00;99.90;;;;;;4967979;28;20456;-88
2022/08/28 07:23:57;;;;;;;22.63;20.20;;;19.90;99.90;;;;;;4980815;28;20440;-88
2022/08/28 07:26:24;;;;;;;22.67;19.73;;;19.90;99.90;;;;;;4967200;28;20451;-88
2022/08/28 07:28:52;;;;;;;22.63;20.07;;;19.80;99.90;;;;;;4973593;28;20188;-87
2022/08/28 07:31:21;;;;;;;23.10;20.70;;;19.70;99.90;;;;;;4971862;28;20476;-90
2022/08/28 07:33:47;;;;;;;23.30;20.90;;;19.70;99.90;;;;;;4970730;28;20796;-90
2022/08/28 07:36:17;;;;;;;25.53;22.57;;;19.80;99.90;;;;;;4990776;28;20433;-89
2022/08/28 07:38:42;;;;;;;25.23;21.43;;;19.70;99.90;;;;;;4976001;28;20845;-89
2022/08/28 07:41:17;;;;;;;24.57;22.07;;;19.70;99.90;;;;;;4971456;28;20798;-88
2022/08/28 07:46:28;;;;;;;23.40;20.90;;;19.50;99.90;;;;;;4977732;28;20481;-85
2022/08/28 07:48:53;;;;;;;24.70;22.00;;;19.60;99.90;;;;;;4975699;28;20441;-89
2022/08/28 07:51:19;;;;;;;25.73;22.93;;;19.60;99.90;;;;;;4975787;28;20899;-89
2022/08/28 07:53:47;;;;;;;25.37;22.40;;;19.40;99.90;;;;;;4979136;28;20196;-92
2022/08/28 07:56:15;;;;;;;24.93;22.23;;;19.30;99.90;;;;;;4974078;28;20262;-89
2022/08/28 07:58:41;;;;;;;30.37;25.00;;;19.30;99.90;;;;;;4978436;28;20451;-89
2022/08/28 08:01:06;;;;;;;26.40;21.70;;;19.30;99.90;;;;;;4977435;28;20514;-90
2022/08/28 08:03:49;;;;;;;25.47;21.90;;;19.30;99.90;;;;;;4975305;28;20599;-90
2022/08/28 08:06:15;;;;;;;24.93;21.70;;;19.30;99.90;;;;;;4974929;28;20254;-89
2022/08/28 08:08:40;;;;;;;23.87;21.17;;;19.50;99.90;;;;;;4988346;28;21187;-90
2022/08/28 08:11:09;;;;;;;25.40;21.20;;;19.60;99.90;;;;;;4964893;28;20503;-92
2022/08/28 08:13:39;;;;;;;25.40;20.47;;;19.70;99.90;;;;;;4992430;28;20185;-93
2022/08/28 08:16:10;;;;;;;23.53;20.10;;;19.80;99.90;;;;;;4978534;28;20467;-93
2022/08/28 08:18:37;;;;;;;23.43;19.00;;;20.10;99.90;;;;;;4972028;28;20453;-92
2022/08/28 08:21:08;;;;;;;21.10;19.10;;;20.30;99.90;;;;;;4988601;28;20571;-92
2022/08/28 08:23:35;;;;;;;22.20;18.00;;;20.40;99.90;;;;;;4983275;28;21038;-90
2022/08/28 08:26:05;;;;;;;20.90;18.90;;;20.50;99.90;;;;;;4984558;28;20474;-91
2022/08/28 08:28:33;;;;;;;20.17;18.27;;;20.80;99.90;;;;;;4986961;28;20456;-90
2022/08/28 08:31:17;;;;;;;19.97;17.87;;;21.10;99.90;;;;;;4975872;28;20488;-89
2022/08/28 08:33:50;;;;;;;20.23;18.13;;;21.40;99.90;;;;;;4971892;28;20444;-90
2022/08/28 08:36:20;;;;;;;18.30;16.40;;;21.40;99.90;;;;;;4975376;28;21061;-91
2022/08/28 08:38:47;;;;;;;18.47;16.60;;;21.50;99.90;;;;;;4976873;28;20592;-90
2022/08/28 08:41:21;;;;;;;16.57;14.93;;;21.60;99.90;;;;;;4976338;28;20475;-90
2022/08/28 08:43:57;;;;;;;17.77;15.90;;;21.90;99.90;;;;;;4977475;28;20471;-90
2022/08/28 08:46:32;;;;;;;15.23;13.73;;;22.20;99.90;;;;;;4991787;28;20475;-90
2022/08/28 08:49:03;;;;;;;16.17;14.53;;;22.40;99.90;;;;;;4980911;28;20945;-89
2022/08/28 08:51:41;;;;;;;16.37;14.70;;;22.30;99.90;;;;;;4978940;28;20571;-90
2022/08/28 08:54:19;;;;;;;14.77;13.37;;;22.30;99.90;;;;;;4977891;28;20474;-90
2022/08/28 08:56:46;;;;;;;12.83;11.63;;;22.80;99.90;;;;;;4974624;28;20955;-90
2022/08/28 08:59:22;;;;;;;13.20;12.00;;;23.30;99.90;;;;;;4976247;28;20443;-89
2022/08/28 09:02:14;;;;;;;13.27;12.17;;;23.80;99.90;;;;;;4975274;28;20485;-90
2022/08/28 09:05:02;;;;;;;12.20;11.10;;;23.40;99.90;;;;;;4994220;28;20496;-90
2022/08/28 09:07:46;;;;;;;11.90;10.90;;;23.50;99.90;;;;;;4970741;28;20502;-90
2022/08/28 09:10:14;;;;;;;12.17;10.77;;;23.90;99.90;;;;;;4988035;28;21048;-89
2022/08/28 09:13:01;;;;;;;12.67;11.47;;;24.00;99.90;;;;;;4978472;28;20848;-89
2022/08/28 09:15:38;;;;;;;12.90;11.80;;;23.90;99.90;;;;;;4995209;28;20455;-90
2022/08/28 09:18:16;;;;;;;12.93;11.87;;;23.90;99.90;;;;;;4979249;28;20437;-91
2022/08/28 09:20:42;;;;;;;12.50;11.20;;;24.00;99.90;;;;;;4970194;28;20532;-91
2022/08/28 09:23:08;;;;;;;12.47;11.27;;;23.60;99.90;;;;;;4977161;28;20473;-91
2022/08/28 09:25:54;;;;;;;11.93;11.00;;;23.40;99.90;;;;;;4974743;28;20182;-91
2022/08/28 09:28:21;;;;;;;12.77;11.40;;;23.30;99.90;;;;;;4978112;28;20180;-91
2022/08/28 09:31:06;;;;;;;13.10;11.90;;;23.50;99.90;;;;;;4977869;28;20476;-91
2022/08/28 09:33:34;;;;;;;13.80;12.57;;;23.50;99.90;;;;;;4991138;28;20445;-92
2022/08/28 09:36:28;;;;;;;13.20;12.03;;;23.40;99.90;;;;;;4991114;28;20511;-92
2022/08/28 09:39:27;;;;;;;12.37;11.27;;;23.20;99.90;;;;;;4993944;28;20450;-91
2022/08/28 09:45:21;;;;;;;11.97;10.80;;;23.40;99.90;;;;;;4977716;28;20831;-92
2022/08/28 09:47:50;;;;;;;12.20;11.00;;;23.70;99.90;;;;;;4982006;28;20510;-91
2022/08/28 09:50:41;;;;;;;11.57;10.40;;;23.70;99.90;;;;;;4981754;28;20469;-92
2022/08/28 09:53:29;;;;;;;10.97;9.80;;;24.20;99.90;;;;;;4976593;28;20479;-90
2022/08/28 09:56:27;;;;;;;11.67;10.67;;;24.50;99.90;;;;;;4992884;28;20433;-90
2022/08/28 09:58:55;;;;;;;11.80;10.80;;;24.80;99.90;;;;;;4990259;28;20447;-90
2022/08/28 10:01:44;;;;;;;11.57;10.57;;;25.10;99.90;;;;;;4979302;28;20467;-90
2022/08/28 10:04:16;;;;;;;12.73;11.37;;;25.00;99.90;;;;;;4985329;28;20443;-90
2022/08/28 10:06:53;;;;;;;11.50;10.50;;;24.50;99.90;;;;;;4978405;28;20444;-91
2022/08/28 10:09:37;;;;;;;12.80;11.70;;;24.30;99.90;;;;;;4975263;28;20444;-90
2022/08/28 10:12:15;;;;;;;14.90;13.40;;;23.90;99.90;;;;;;4991913;28;20526;-91
2022/08/28 10:15:14;;;;;;;14.27;13.03;;;23.60;99.90;;;;;;4972965;28;20436;-91
2022/08/28 10:18:06;;;;;;;14.50;11.67;;;23.00;99.90;;;;;;4972681;28;20449;-91
2022/08/28 10:20:57;;;;;;;12.00;11.00;;;22.80;99.90;;;;;;4973794;28;20445;-91
2022/08/28 10:23:35;;;;;;;12.70;11.50;;;23.00;99.90;;;;;;4977044;28;20465;-90
2022/08/28 10:26:31;;;;;;;12.80;11.57;;;23.00;99.90;;;;;;4972876;28;20564;-90
2022/08/28 10:29:15;;;;;;;13.87;12.47;;;23.20;99.90;;;;;;4992410;28;20448;-90
2022/08/28 10:31:46;;;;;;;14.10;12.70;;;23.10;99.90;;;;;;4973904;28;20862;-90
2022/08/28 10:34:27;;;;;;;13.53;12.43;;;22.70;99.90;;;;;;4981974;28;20480;-90
2022/08/28 10:37:24;;;;;;;13.30;12.07;;;22.60;99.90;;;;;;4974039;28;20444;-91
2022/08/28 10:39:57;;;;;;;12.93;11.67;;;22.20;99.90;;;;;;4976234;28;20866;-90
2022/08/28 10:42:30;;;;;;;12.80;11.57;;;22.10;99.90;;;;;;4977454;28;20437;-90
2022/08/28 10:45:05;;;;;;;12.97;11.77;;;22.10;99.90;;;;;;4980271;28;20445;-90
2022/08/28 10:47:38;;;;;;;14.43;13.23;;;22.20;99.90;;;;;;4979833;28;20448;-90
2022/08/28 10:50:13;;;;;;;14.67;11.70;;;22.40;99.90;;;;;;4978976;28;20946;-90
2022/08/28 10:52:48;;;;;;;12.27;11.17;;;23.00;99.90;;;;;;4978885;28;20454;-91
2022/08/28 10:55:25;;;;;;;10.97;10.07;;;23.50;99.90;;;;;;4978509;28;20527;-91
2022/08/28 10:58:02;;;;;;;12.10;10.60;;;23.40;99.90;;;;;;4980351;28;20448;-90
2022/08/28 11:00:31;;;;;;;11.40;10.40;;;23.20;99.90;;;;;;4980258;28;20842;-91
2022/08/28 11:03:01;;;;;;;11.37;10.37;;;23.40;99.90;;;;;;4983339;28;20444;-91
2022/08/28 11:05:34;;;;;;;9.20;8.40;;;23.30;99.90;;;;;;4982553;28;21038;-91
2022/08/28 11:08:05;;;;;;;11.53;10.53;;;23.40;99.90;;;;;;4980347;28;20463;-90
2022/08/28 11:10:31;;;;;;;10.80;9.83;;;23.90;99.90;;;;;;4980429;28;20483;-90
2022/08/28 11:12:57;;;;;;;10.30;9.40;;;24.50;99.90;;;;;;4978495;28;20440;-90
2022/08/28 11:15:26;;;;;;;10.30;9.23;;;24.80;99.90;;;;;;4981486;28;20189;-90
2022/08/28 11:18:11;;;;;;;9.93;9.13;;;25.20;99.90;;;;;;4992900;28;20436;-90
2022/08/28 11:20:39;;;;;;;11.17;10.10;;;25.00;99.90;;;;;;4978361;28;20445;-90
2022/08/28 11:23:21;;;;;;;9.30;8.50;;;25.20;99.90;;;;;;4981946;28;21021;-90
2022/08/28 11:25:53;;;;;;;9.77;8.67;;;26.10;99.90;;;;;;4973575;28;20441;-90
2022/08/28 11:28:26;;;;;;;9.50;8.80;;;26.90;99.90;;;;;;4979690;28;21078;-90
2022/08/28 11:31:03;;;;;;;9.70;8.90;;;26.90;99.90;;;;;;4978947;28;20486;-91
2022/08/28 11:33:34;;;;;;;9.37;8.67;;;26.60;99.90;;;;;;4979432;28;21005;-91
2022/08/28 11:35:59;;;;;;;9.87;8.97;;;26.30;99.90;;;;;;4984584;28;20939;-90
2022/08/28 11:38:40;;;;;;;8.97;8.30;;;25.80;99.90;;;;;;4976623;28;20453;-91
2022/08/28 11:41:26;;;;;;;9.50;8.70;;;25.60;99.90;;;;;;4979210;28;20186;-91
2022/08/28 11:44:12;;;;;;;10.23;9.30;;;25.70;99.90;;;;;;4993378;28;20448;-91
2022/08/28 11:46:42;;;;;;;9.47;8.57;;;25.90;99.90;;;;;;4990656;28;21035;-91
2022/08/28 11:49:24;;;;;;;9.53;8.63;;;26.00;99.90;;;;;;4974640;28;20436;-90
2022/08/28 11:51:53;;;;;;;8.77;8.07;;;25.80;99.90;;;;;;4980145;28;20483;-90
2022/08/28 11:54:37;;;;;;;9.30;8.60;;;26.00;99.90;;;;;;4976299;28;20436;-91
2022/08/28 11:57:11;;;;;;;9.40;8.70;;;26.00;99.90;;;;;;4993791;28;20536;-90
2022/08/28 12:00:02;;;;;;;8.83;8.03;;;25.60;99.90;;;;;;4992941;28;20519;-90
2022/08/28 12:02:40;;;;;;;10.23;9.37;;;25.60;99.90;;;;;;4996302;28;20451;-91
2022/08/28 12:05:14;;;;;;;8.77;8.10;;;25.70;99.90;;;;;;4981007;28;20551;-91
2022/08/28 12:07:49;;;;;;;9.43;8.63;;;25.60;99.90;;;;;;4993398;28;20436;-90
2022/08/28 12:10:25;;;;;;;11.20;8.43;;;26.30;99.90;;;;;;4977578;28;20525;-90
2022/08/28 12:12:59;;;;;;;9.90;9.10;;;26.80;99.90;;;;;;4979274;28;20440;-91
2022/08/28 12:15:28;;;;;;;9.40;8.63;;;27.40;99.90;;;;;;4995567;28;20440;-90
2022/08/28 12:18:04;;;;;;;8.20;7.60;;;26.80;99.40;;;;;;4984847;28;20472;-90
2022/08/28 12:20:57;;;;;;;9.53;8.37;;;26.90;99.90;;;;;;4989534;28;20810;-90
2022/08/28 12:23:22;;;;;;;9.03;8.13;;;26.00;99.90;;;;;;4991257;28;20430;-90
2022/08/28 12:25:57;;;;;;;9.43;8.63;;;25.60;99.90;;;;;;4974329;28;21197;-91
2022/08/28 12:28:35;;;;;;;8.67;7.90;;;25.30;99.90;;;;;;4974866;28;20693;-90
2022/08/28 12:31:04;;;;;;;8.23;7.63;;;25.00;99.90;;;;;;4980383;28;20563;-91
2022/08/28 12:33:37;;;;;;;9.60;8.90;;;24.90;99.90;;;;;;4991823;28;20437;-90
2022/08/28 12:36:04;;;;;;;9.13;8.30;;;24.80;99.90;;;;;;4973033;28;20455;-90
2022/08/28 12:38:32;;;;;;;8.53;7.70;;;24.70;99.90;;;;;;4978252;28;20947;-90
2022/08/28 12:40:58;;;;;;;8.67;8.07;;;24.60;99.90;;;;;;4978028;28;20441;-89
2022/08/28 12:43:30;;;;;;;9.30;7.80;;;24.80;99.90;;;;;;4989078;28;21049;-90
2022/08/28 12:46:29;;;;;;;8.57;7.97;;;25.10;99.90;;;;;;4979293;28;20186;-90
2022/08/28 12:48:58;;;;;;;8.97;8.17;;;25.90;99.70;;;;;;4978746;28;20444;-90
2022/08/28 12:51:30;;;;;;;8.93;8.23;;;26.70;98.00;;;;;;4971650;28;20845;-89
2022/08/28 12:54:05;;;;;;;8.90;7.77;;;27.00;99.90;;;;;;4977298;28;20480;-89
2022/08/28 12:56:36;;;;;;;9.13;8.13;;;27.30;98.10;;;;;;4976657;28;20487;-91
2022/08/28 12:59:37;;;;;;;8.87;7.40;;;27.50;98.20;;;;;;4990437;28;20476;-90